Time;durP1;ratioP1;P1;durP2;ratioP2;P2;SDS_P1;SDS_P2;PMS_P1;PMS_P2;Temp;Humidity;BMP_temperature;BMP_pressure;BME280_temperature;BME280_humidity;BME280_pressure;Samples;Min_cycle;Max_cycle;Signal;HPM_P1;HPM_P2
2022/12/28 00:00:09;;;;;;;15.13;9.25;;;;;;;0.50;83.82;100339.63;350412;28;1042;-70
2022/12/28 00:00:21;;;;;;;15.55;8.93;;;;;;;0.49;83.77;100337.91;350333;28;1588;-70
2022/12/28 00:00:33;;;;;;;15.38;8.82;;;;;;;0.48;83.13;100331.06;349927;28;1570;-70
2022/12/28 00:00:45;;;;;;;15.07;8.93;;;;;;;0.52;83.46;100340.50;349771;28;2168;-70
2022/12/28 00:01:09;;;;;;;14.60;8.80;;;;;;;0.48;83.58;100338.72;349317;28;1773;-70
2022/12/28 00:01:27;;;;;;;15.65;9.02;;;;;;;0.52;83.95;100340.50;350002;28;1244;-70
2022/12/28 00:01:39;;;;;;;14.77;8.90;;;;;;;0.55;83.46;100343.16;350326;28;1847;-70
2022/12/28 00:01:51;;;;;;;14.98;9.23;;;;;;;0.52;83.39;100338.81;351640;28;1300;-70
2022/12/28 00:02:03;;;;;;;16.30;9.48;;;;;;;0.51;83.52;100338.81;351330;28;1653;-70
2022/12/28 00:02:15;;;;;;;16.55;9.05;;;;;;;0.57;83.26;100337.22;351444;28;1555;-69
2022/12/28 00:02:30;;;;;;;14.25;8.43;;;;;;;0.62;82.97;100337.28;351832;28;1079;-69
2022/12/28 00:02:42;;;;;;;13.35;8.23;;;;;;;0.68;82.95;100339.97;349589;28;1694;-70
2022/12/28 00:02:59;;;;;;;13.23;8.45;;;;;;;0.71;83.05;100334.91;349735;28;2170;-70
2022/12/28 00:03:12;;;;;;;14.38;9.15;;;;;;;0.67;83.03;100333.13;349858;28;2125;-69
2022/12/28 00:03:24;;;;;;;14.45;9.38;;;;;;;0.65;82.60;100331.41;350437;28;1267;-70
2022/12/28 00:03:36;;;;;;;14.65;9.20;;;;;;;0.62;82.56;100333.88;349004;28;1365;-70
2022/12/28 00:03:48;;;;;;;16.63;9.55;;;;;;;0.61;83.00;100334.72;349583;28;1649;-69
2022/12/28 00:04:03;;;;;;;16.95;9.40;;;;;;;0.65;82.99;100336.50;349088;28;1018;-70
2022/12/28 00:04:15;;;;;;;15.50;8.93;;;;;;;0.69;82.91;100325.50;348826;28;1067;-70
2022/12/28 00:04:27;;;;;;;14.15;8.63;;;;;;;0.70;82.27;100330.63;348922;28;1209;-69
2022/12/28 00:04:39;;;;;;;15.15;9.13;;;;;;;0.71;82.42;100329.78;348926;28;1011;-70
2022/12/28 00:04:51;;;;;;;15.13;9.20;;;;;;;0.65;82.11;100329.69;350223;28;1675;-70
2022/12/28 00:05:03;;;;;;;14.40;9.27;;;;;;;0.66;82.33;100330.53;351697;28;1066;-70
2022/12/28 00:05:16;;;;;;;13.95;9.40;;;;;;;0.67;82.61;100332.28;350840;28;2427;-69
2022/12/28 00:05:28;;;;;;;14.75;9.63;;;;;;;0.62;82.07;100332.19;352217;28;1245;-69
2022/12/28 00:05:40;;;;;;;14.70;9.55;;;;;;;0.63;82.57;100331.34;352107;28;1208;-69
2022/12/28 00:05:52;;;;;;;14.32;9.50;;;;;;;0.56;82.17;100335.50;351864;28;1718;-70
2022/12/28 00:06:05;;;;;;;14.57;9.40;;;;;;;0.54;82.83;100332.06;350197;28;1640;-69
2022/12/28 00:06:19;;;;;;;13.73;8.98;;;;;;;0.53;82.25;100330.31;350114;28;1405;-70
2022/12/28 00:06:33;;;;;;;15.57;9.35;;;;;;;0.49;82.30;100338.75;349268;28;1656;-70
2022/12/28 00:06:46;;;;;;;16.90;9.73;;;;;;;0.48;82.79;100326.78;349134;28;1058;-70
2022/12/28 00:06:58;;;;;;;17.88;9.88;;;;;;;0.47;82.91;100329.34;349763;28;1425;-70
2022/12/28 00:07:10;;;;;;;16.25;9.60;;;;;;;0.46;82.85;100337.84;350094;28;1715;-70
2022/12/28 00:07:22;;;;;;;15.38;9.55;;;;;;;0.46;82.37;100337.84;350443;28;1375;-69
2022/12/28 00:07:34;;;;;;;15.68;9.38;;;;;;;0.44;83.04;100335.25;350422;28;1237;-70
2022/12/28 00:07:46;;;;;;;15.35;8.98;;;;;;;0.44;83.06;100330.13;350247;28;1125;-70
2022/12/28 00:07:58;;;;;;;15.13;8.57;;;;;;;0.35;82.56;100333.38;350328;28;1005;-69
2022/12/28 00:08:10;;;;;;;15.88;8.82;;;;;;;0.26;82.89;100330.63;350713;28;1588;-69
2022/12/28 00:08:22;;;;;;;15.23;8.93;;;;;;;0.20;82.92;100335.63;351430;28;1354;-70
2022/12/28 00:08:34;;;;;;;15.50;9.00;;;;;;;0.10;83.24;100333.69;351604;28;1268;-70
2022/12/28 00:08:46;;;;;;;15.13;8.70;;;;;;;0.11;83.29;100340.56;350912;28;1767;-70
2022/12/28 00:08:59;;;;;;;15.35;8.75;;;;;;;0.11;84.10;100335.44;351854;28;1842;-70
2022/12/28 00:09:12;;;;;;;14.40;9.07;;;;;;;0.15;83.47;100335.53;350312;28;1265;-70
2022/12/28 00:09:24;;;;;;;15.77;9.40;;;;;;;0.16;83.61;100338.94;349044;28;1265;-70
2022/12/28 00:09:36;;;;;;;15.52;9.50;;;;;;;0.13;83.57;100334.63;348968;28;1890;-70
2022/12/28 00:09:48;;;;;;;15.13;9.50;;;;;;;0.03;84.28;100342.09;348761;28;1613;-70
2022/12/28 00:10:00;;;;;;;14.85;9.30;;;;;;;0.10;84.11;100332.03;348871;28;1178;-70
2022/12/28 00:10:12;;;;;;;15.60;9.30;;;;;;;0.15;83.60;100332.13;348290;28;1630;-70
2022/12/28 00:10:24;;;;;;;17.48;9.63;;;;;;;0.22;83.84;100336.50;348723;28;1069;-70
2022/12/28 00:11:00;;;;;;;17.45;8.98;;;;;;;0.26;83.24;100333.19;348984;28;1517;-70
2022/12/28 00:11:23;;;;;;;16.67;9.73;;;;;;;0.31;83.28;100329.03;349646;28;1952;-70
2022/12/28 00:11:41;;;;;;;14.82;9.07;;;;;;;0.41;83.75;100334.34;350895;28;1722;-69
2022/12/28 00:11:53;;;;;;;15.80;8.95;;;;;;;0.34;83.35;100329.09;351555;28;1245;-70
2022/12/28 00:12:05;;;;;;;17.80;9.35;;;;;;;0.20;83.28;100330.50;351268;28;1713;-70
2022/12/28 00:12:17;;;;;;;16.70;9.30;;;;;;;0.13;83.43;100328.66;350154;28;2024;-69
2022/12/28 00:12:29;;;;;;;14.40;8.70;;;;;;;0.07;84.22;100338.78;350425;28;1096;-70
2022/12/28 00:12:41;;;;;;;14.85;9.15;;;;;;;0.05;84.17;100330.22;350537;28;1100;-70
2022/12/28 00:12:53;;;;;;;14.45;9.02;;;;;;;0.04;84.22;100338.69;350803;28;750;-70
2022/12/28 00:13:05;;;;;;;13.43;8.85;;;;;;;0.09;84.60;100332.00;350486;28;1094;-69
2022/12/28 00:13:17;;;;;;;13.80;8.93;;;;;;;0.15;84.29;100334.69;350559;28;1291;-70
2022/12/28 00:13:30;;;;;;;13.57;8.93;;;;;;;0.22;84.61;100331.41;347945;28;2135;-70
2022/12/28 00:13:42;;;;;;;13.18;8.80;;;;;;;0.31;84.45;100338.41;348226;28;1571;-70
2022/12/28 00:13:55;;;;;;;14.88;8.60;;;;;;;0.35;84.46;100330.81;348747;28;1227;-70
2022/12/28 00:14:07;;;;;;;15.48;8.80;;;;;;;0.42;84.47;100330.94;349027;28;1050;-70
2022/12/28 00:14:19;;;;;;;14.07;8.82;;;;;;;0.46;84.91;100328.47;349424;28;1403;-70
2022/12/28 00:14:31;;;;;;;12.55;8.13;;;;;;;0.53;84.46;100324.34;350468;28;1106;-70
2022/12/28 00:14:43;;;;;;;12.38;8.00;;;;;;;0.59;84.59;100327.03;349632;28;1666;-70
2022/12/28 00:14:58;;;;;;;12.88;8.18;;;;;;;0.64;84.57;100327.94;348917;28;1209;-70
2022/12/28 00:15:10;;;;;;;14.38;8.55;;;;;;;0.64;83.73;100322.81;348610;28;1715;-70
2022/12/28 00:15:22;;;;;;;15.20;8.80;;;;;;;0.57;84.02;100326.13;346435;28;1585;-69
2022/12/28 00:15:36;;;;;;;14.70;8.70;;;;;;;0.38;82.99;100320.66;347510;28;1187;-70
2022/12/28 00:15:48;;;;;;;15.48;8.75;;;;;;;0.24;83.43;100332.28;348354;28;1796;-70
2022/12/28 00:16:19;;;;;;;14.32;8.55;;;;;;;0.21;83.57;100327.13;348181;28;1633;-69
2022/12/28 00:16:36;;;;;;;14.77;8.60;;;;;;;0.34;84.03;100329.09;347525;28;1127;-69
2022/12/28 00:16:51;;;;;;;13.10;8.52;;;;;;;0.42;84.40;100330.94;348088;28;1842;-70
2022/12/28 00:17:03;;;;;;;13.48;8.70;;;;;;;0.44;84.71;100324.16;348845;28;1039;-69
2022/12/28 00:17:15;;;;;;;15.15;8.80;;;;;;;0.49;84.59;100330.25;349165;28;1657;-70
2022/12/28 00:17:27;;;;;;;15.25;8.73;;;;;;;0.48;83.91;100320.81;350066;28;1837;-70
2022/12/28 00:17:39;;;;;;;13.57;8.57;;;;;;;0.52;83.40;100327.72;350410;28;1067;-70
2022/12/28 00:17:51;;;;;;;13.32;8.57;;;;;;;0.56;84.29;100327.84;349675;28;1719;-69
2022/12/28 00:18:03;;;;;;;13.07;8.15;;;;;;;0.62;83.54;100324.50;349664;28;1227;-70
2022/12/28 00:18:15;;;;;;;14.27;7.90;;;;;;;0.67;83.90;100324.59;349414;28;2012;-70
2022/12/28 00:18:27;;;;;;;14.10;8.05;;;;;;;0.68;83.78;100324.59;350203;28;1688;-69
2022/12/28 00:18:39;;;;;;;13.23;8.48;;;;;;;0.64;83.04;100322.81;350371;28;1054;-70
2022/12/28 00:18:52;;;;;;;12.75;8.60;;;;;;;0.66;83.18;100326.28;349346;28;1797;-69
2022/12/28 00:19:09;;;;;;;12.55;8.50;;;;;;;0.65;83.33;100329.69;347889;28;1746;-70
2022/12/28 00:19:21;;;;;;;12.48;7.90;;;;;;;0.60;83.11;100326.16;348689;28;1699;-69
2022/12/28 00:19:33;;;;;;;12.75;7.82;;;;;;;0.63;82.76;100328.78;349855;28;1098;-70
2022/12/28 00:19:45;;;;;;;13.20;8.07;;;;;;;0.65;82.79;100327.13;350626;28;1090;-70
2022/12/28 00:19:58;;;;;;;14.07;8.05;;;;;;;0.69;83.57;100326.34;347636;28;1459;-70
2022/12/28 00:20:10;;;;;;;14.30;8.13;;;;;;;0.75;83.18;100330.72;347472;28;1027;-70
2022/12/28 00:20:22;;;;;;;14.93;8.48;;;;;;;0.81;83.53;100329.97;348383;28;1308;-70
2022/12/28 00:20:34;;;;;;;13.77;8.48;;;;;;;0.83;83.02;100328.31;349059;28;1124;-70
2022/12/28 00:20:57;;;;;;;14.43;8.60;;;;;;;0.85;82.97;100330.06;349171;28;1018;-69
2022/12/28 00:21:09;;;;;;;12.82;8.23;;;;;;;0.82;82.97;100334.25;349689;28;1672;-70
2022/12/28 00:21:22;;;;;;;14.02;8.18;;;;;;;0.83;83.21;100325.75;350385;28;1289;-70
2022/12/28 00:21:34;;;;;;;14.82;8.50;;;;;;;0.84;82.77;100324.91;350733;28;1478;-70
2022/12/28 00:21:46;;;;;;;14.43;8.52;;;;;;;0.84;82.57;100330.00;350619;28;1038;-70
2022/12/28 00:21:58;;;;;;;13.20;8.50;;;;;;;0.85;83.39;100326.63;350780;28;1033;-70
2022/12/28 00:22:10;;;;;;;12.90;8.63;;;;;;;0.86;83.20;100323.22;350362;28;1210;-70
2022/12/28 00:22:22;;;;;;;14.48;8.85;;;;;;;0.89;83.10;100324.16;350407;28;1320;-70
2022/12/28 00:22:34;;;;;;;13.68;8.50;;;;;;;0.91;83.45;100327.59;349705;28;1629;-70
2022/12/28 00:22:46;;;;;;;13.88;8.32;;;;;;;0.91;82.58;100321.63;350394;28;1113;-70
2022/12/28 00:22:58;;;;;;;15.18;8.55;;;;;;;0.94;82.48;100326.78;350292;28;1231;-70
2022/12/28 00:23:09;;;;;;;16.85;8.70;;;;;;;0.92;81.91;100323.31;350092;28;1334;-70
2022/12/28 00:23:21;;;;;;;15.70;8.68;;;;;;;0.91;81.94;100326.75;350385;28;1332;-70
2022/12/28 00:23:34;;;;;;;14.38;8.82;;;;;;;0.90;81.71;100330.13;350447;28;1407;-70
2022/12/28 00:23:50;;;;;;;13.48;9.18;;;;;;;0.86;81.85;100324.06;349518;28;2311;-70
2022/12/28 00:24:03;;;;;;;14.40;9.13;;;;;;;0.86;81.82;100324.06;349946;28;1262;-70
2022/12/28 00:24:20;;;;;;;14.23;9.00;;;;;;;0.85;82.21;100327.50;347691;28;1300;-70
2022/12/28 00:24:35;;;;;;;13.68;8.90;;;;;;;0.86;81.73;100323.22;347910;28;1578;-70
2022/12/28 00:24:47;;;;;;;14.10;8.98;;;;;;;0.89;81.78;100323.28;348866;28;1053;-69
2022/12/28 00:24:59;;;;;;;14.77;8.98;;;;;;;0.91;81.73;100316.50;348223;28;1693;-69
2022/12/28 00:25:11;;;;;;;14.32;9.05;;;;;;;0.92;81.77;100316.50;347901;28;1940;-69
2022/12/28 00:25:23;;;;;;;15.20;9.00;;;;;;;0.96;82.09;100320.00;348418;28;1620;-70
2022/12/28 00:25:35;;;;;;;17.08;8.85;;;;;;;0.96;82.03;100320.84;348008;28;1154;-69
2022/12/28 00:25:47;;;;;;;16.52;8.80;;;;;;;0.96;81.95;100320.84;348921;28;1090;-69
2022/12/28 00:26:11;;;;;;;14.73;8.55;;;;;;;0.91;82.18;100319.06;350120;28;1301;-70
2022/12/28 00:26:24;;;;;;;14.10;8.90;;;;;;;0.92;81.90;100324.19;350777;28;1591;-70
2022/12/28 00:26:36;;;;;;;14.07;8.65;;;;;;;0.97;82.09;100321.72;350222;28;1097;-70
2022/12/28 00:26:48;;;;;;;12.82;8.20;;;;;;;1.02;81.82;100317.53;350431;28;1100;-69
2022/12/28 00:27:00;;;;;;;12.10;7.60;;;;;;;1.05;82.21;100320.16;350694;28;1132;-69
2022/12/28 00:27:12;;;;;;;12.68;7.57;;;;;;;1.09;81.83;100323.63;350338;28;1040;-69
2022/12/28 00:27:24;;;;;;;12.93;8.00;;;;;;;1.11;82.37;100321.97;350167;28;1375;-69
2022/12/28 00:27:36;;;;;;;15.20;8.50;;;;;;;1.12;82.71;100321.97;349513;28;1596;-70
2022/12/28 00:27:48;;;;;;;17.02;9.00;;;;;;;1.05;81.76;100320.16;350550;28;1025;-69
2022/12/28 00:28:00;;;;;;;17.08;9.18;;;;;;;1.09;nan;100326.19;349970;28;1242;-70
2022/12/28 00:28:13;;;;;;;15.57;8.95;;;;;;;1.10;82.36;100320.22;350414;28;1109;-70
2022/12/28 00:28:24;;;;;;;14.15;8.95;;;;;;;1.10;82.11;100318.50;350119;28;1450;-70
2022/12/28 00:28:37;;;;;;;14.50;8.98;;;;;;;1.11;81.39;100317.69;349525;28;1701;-70
2022/12/28 00:28:49;;;;;;;13.55;8.65;;;;;;;1.15;81.84;100321.16;350572;28;1098;-70
2022/12/28 00:29:02;;;;;;;14.02;8.57;;;;;;;1.16;81.64;100323.72;350710;28;1020;-70
2022/12/28 00:29:17;;;;;;;15.10;8.95;;;;;;;1.13;81.86;100317.72;349348;28;1720;-70
2022/12/28 00:29:29;;;;;;;14.68;9.20;;;;;;;1.13;81.65;100317.72;350369;28;966;-69
2022/12/28 00:29:41;;;;;;;15.25;9.18;;;;;;;1.11;81.13;100325.38;349410;28;1761;-70
2022/12/28 00:29:53;;;;;;;15.10;8.68;;;;;;;1.14;81.62;100315.16;349257;28;1631;-69
2022/12/28 00:30:06;;;;;;;15.10;8.50;;;;;;;1.15;81.62;100314.34;350450;28;1082;-70
2022/12/28 00:30:18;;;;;;;16.42;9.38;;;;;;;1.18;81.83;100314.38;350300;28;1307;-70
2022/12/28 00:30:30;;;;;;;15.65;9.52;;;;;;;1.22;81.44;100322.13;350479;28;1105;-70
2022/12/28 00:30:42;;;;;;;12.60;8.85;;;;;;;1.26;81.96;100316.22;348887;28;1540;-70
2022/12/28 00:30:56;;;;;;;13.35;8.60;;;;;;;1.28;81.79;100317.09;348345;28;1651;-70
2022/12/28 00:31:08;;;;;;;14.27;8.65;;;;;;;1.29;81.96;100313.69;349034;28;1297;-70
2022/12/28 00:31:23;;;;;;;13.73;9.10;;;;;;;1.27;81.80;100320.47;349529;28;1989;-69
2022/12/28 00:31:35;;;;;;;14.05;9.27;;;;;;;1.21;82.16;100316.16;350241;28;1228;-70
2022/12/28 00:31:47;;;;;;;14.65;8.95;;;;;;;1.19;82.22;100316.13;350442;28;1169;-70
2022/12/28 00:32:00;;;;;;;14.88;8.77;;;;;;;1.14;81.69;100315.16;348311;28;1915;-69
2022/12/28 00:32:12;;;;;;;13.55;8.60;;;;;;;1.16;82.02;100321.16;349043;28;1336;-70
2022/12/28 00:32:26;;;;;;;12.40;8.45;;;;;;;1.14;82.17;100315.16;348955;28;1286;-69
2022/12/28 00:32:38;;;;;;;14.82;8.55;;;;;;;1.15;82.56;100316.91;347597;28;1085;-70
2022/12/28 00:32:50;;;;;;;14.73;8.73;;;;;;;1.18;82.04;100311.81;347518;28;1194;-69
2022/12/28 00:33:02;;;;;;;15.20;8.68;;;;;;;1.19;82.48;100313.56;346544;28;1722;-70
2022/12/28 00:33:14;;;;;;;14.65;8.85;;;;;;;1.19;82.17;100313.56;347360;28;1904;-70
2022/12/28 00:33:26;;;;;;;14.40;8.88;;;;;;;1.20;81.90;100317.81;346310;28;1989;-70
2022/12/28 00:33:38;;;;;;;14.43;8.68;;;;;;;1.10;81.45;100318.50;346890;28;1800;-70
2022/12/28 00:33:50;;;;;;;15.98;8.90;;;;;;;0.97;81.25;100316.59;347496;28;1105;-70
2022/12/28 00:34:03;;;;;;;16.17;9.20;;;;;;;1.02;81.61;100314.97;347299;28;1960;-70
2022/12/28 00:34:15;;;;;;;15.07;9.13;;;;;;;1.09;82.05;100321.06;347906;28;758;-69
2022/12/28 00:34:27;;;;;;;14.63;9.10;;;;;;;1.11;81.70;100319.41;347409;28;1249;-70
2022/12/28 00:34:39;;;;;;;13.60;9.07;;;;;;;1.14;81.53;100320.28;347742;28;1213;-70
2022/12/28 00:34:51;;;;;;;12.77;8.50;;;;;;;1.20;81.69;100316.97;348418;28;1699;-69
2022/12/28 00:35:04;;;;;;;12.52;8.52;;;;;;;1.23;82.03;100313.59;350260;28;1162;-69
2022/12/28 00:35:16;;;;;;;13.23;8.57;;;;;;;1.26;82.03;100308.53;348945;28;1368;-69
2022/12/28 00:35:28;;;;;;;14.23;9.00;;;;;;;1.28;81.66;100317.09;348278;28;1668;-69
2022/12/28 00:35:40;;;;;;;15.85;9.48;;;;;;;1.28;82.12;100311.97;347873;28;2269;-70
2022/12/28 00:35:53;;;;;;;15.70;9.93;;;;;;;1.28;82.04;100309.41;348992;28;1717;-70
2022/12/28 00:36:06;;;;;;;14.55;9.57;;;;;;;1.28;81.59;100317.09;348909;28;2285;-69
2022/12/28 00:36:18;;;;;;;14.43;9.30;;;;;;;1.28;81.51;100306.84;349184;28;1567;-70
2022/12/28 00:36:30;;;;;;;14.18;9.15;;;;;;;1.28;81.91;100309.41;348888;28;1143;-69
2022/12/28 00:37:02;;;;;;;15.45;9.30;;;;;;;1.24;81.55;100313.63;348947;28;1447;-70
2022/12/28 00:37:23;;;;;;;15.75;9.95;;;;;;;1.26;81.36;100311.94;350316;28;1251;-70
2022/12/28 00:37:36;;;;;;;15.32;9.48;;;;;;;1.30;81.84;100315.41;350025;28;1346;-70
2022/12/28 00:37:48;;;;;;;14.32;9.23;;;;;;;1.33;81.69;100311.22;350021;28;1217;-70
2022/12/28 00:38:00;;;;;;;14.48;9.10;;;;;;;1.36;81.96;100310.38;350033;28;1058;-69
2022/12/28 00:38:12;;;;;;;14.82;9.25;;;;;;;1.36;82.18;100307.84;349645;28;1925;-70
2022/12/28 00:38:24;;;;;;;15.98;9.73;;;;;;;1.36;82.10;100315.50;350155;28;1549;-70
2022/12/28 00:38:37;;;;;;;15.48;9.75;;;;;;;1.36;81.22;100305.28;351805;28;1042;-69
2022/12/28 00:38:49;;;;;;;13.80;9.63;;;;;;;1.32;81.33;100306.06;351683;28;1197;-70
2022/12/28 00:39:04;;;;;;;13.98;9.48;;;;;;;1.35;81.01;100303.56;350543;28;1261;-70
2022/12/28 00:39:17;;;;;;;12.88;8.90;;;;;;;1.39;81.71;100305.34;350796;28;1263;-70
2022/12/28 00:39:29;;;;;;;11.77;8.60;;;;;;;1.41;81.87;100308.78;350446;28;1310;-70
2022/12/28 00:39:41;;;;;;;12.18;8.57;;;;;;;1.37;81.68;100301.88;350207;28;1239;-70
2022/12/28 00:39:53;;;;;;;13.70;9.02;;;;;;;1.39;80.74;100301.06;349656;28;1588;-70
2022/12/28 00:40:06;;;;;;;15.27;9.23;;;;;;;1.40;81.32;100307.03;350220;28;1766;-70
2022/12/28 00:40:18;;;;;;;15.35;9.38;;;;;;;1.42;81.38;100301.94;350262;28;1263;-70
2022/12/28 00:40:35;;;;;;;15.70;9.80;;;;;;;1.41;81.45;100303.66;349088;28;1006;-70
2022/12/28 00:40:47;;;;;;;15.52;9.23;;;;;;;1.44;80.84;100300.28;347435;28;1147;-70
2022/12/28 00:40:59;;;;;;;12.73;8.32;;;;;;;1.46;80.95;100296.88;347675;28;1251;-70
2022/12/28 00:41:11;;;;;;;11.70;8.13;;;;;;;1.49;81.38;100307.19;349208;28;1058;-69
2022/12/28 00:41:23;;;;;;;12.23;8.60;;;;;;;1.50;81.29;100301.22;348880;28;1334;-70
2022/12/28 00:41:35;;;;;;;13.48;8.63;;;;;;;1.48;81.32;100294.34;348925;28;1175;-69
2022/12/28 00:41:47;;;;;;;14.65;8.93;;;;;;;1.49;80.61;100301.19;348467;28;1905;-70
2022/12/28 00:41:59;;;;;;;15.88;9.35;;;;;;;1.50;80.89;100297.78;348728;28;1760;-70
2022/12/28 00:42:11;;;;;;;14.30;8.82;;;;;;;1.50;80.91;100298.66;347864;28;1307;-70
2022/12/28 00:42:23;;;;;;;12.00;8.05;;;;;;;1.54;80.68;100291.88;348858;28;1292;-70
2022/12/28 00:42:35;;;;;;;11.70;7.65;;;;;;;1.54;80.83;100295.28;349067;28;818;-69
2022/12/28 00:42:47;;;;;;;12.13;7.93;;;;;;;1.53;80.92;100293.59;348073;28;1073;-70
2022/12/28 00:42:59;;;;;;;13.75;8.80;;;;;;;1.49;80.88;100296.94;348856;28;2042;-70
2022/12/28 00:43:11;;;;;;;15.30;9.15;;;;;;;1.46;80.95;100299.44;350179;28;1466;-69
2022/12/28 00:43:23;;;;;;;16.02;9.30;;;;;;;1.42;81.41;100294.25;350325;28;1358;-69
2022/12/28 00:43:36;;;;;;;15.35;8.45;;;;;;;1.44;81.23;100293.44;350304;28;1333;-70
2022/12/28 00:43:48;;;;;;;13.45;8.07;;;;;;;1.46;81.43;100296.03;349047;28;1094;-69
2022/12/28 00:44:00;;;;;;;12.05;8.02;;;;;;;1.49;81.16;100291.81;348703;28;1192;-69
2022/12/28 00:44:12;;;;;;;11.15;8.02;;;;;;;1.52;80.95;100296.97;347703;28;1024;-71
2022/12/28 00:44:24;;;;;;;11.43;8.05;;;;;;;1.54;81.51;100297.84;347638;28;1272;-70
2022/12/28 00:44:36;;;;;;;12.68;8.07;;;;;;;1.54;81.15;100304.69;347507;28;1047;-71
2022/12/28 00:44:48;;;;;;;13.27;8.60;;;;;;;1.56;81.15;100303.84;347582;28;1113;-70
2022/12/28 00:45:00;;;;;;;13.85;8.98;;;;;;;1.55;81.74;100302.16;347809;28;1589;-70
2022/12/28 00:45:12;;;;;;;13.80;9.15;;;;;;;1.54;81.60;100291.88;348903;28;1247;-70
2022/12/28 00:45:23;;;;;;;14.27;9.30;;;;;;;1.56;81.73;100298.72;348556;28;1239;-71
2022/12/28 00:45:36;;;;;;;13.38;9.40;;;;;;;1.54;81.21;100299.56;348774;28;1232;-71
2022/12/28 00:45:48;;;;;;;14.85;9.25;;;;;;;1.54;81.21;100295.28;349146;28;1098;-70
2022/12/28 00:46:00;;;;;;;14.60;8.95;;;;;;;1.56;81.07;100298.72;350076;28;1043;-70
2022/12/28 00:46:13;;;;;;;12.85;8.98;;;;;;;1.60;81.80;100295.38;350480;28;1102;-71
2022/12/28 00:46:25;;;;;;;12.30;8.30;;;;;;;1.63;81.94;100293.69;351765;28;1354;-70
2022/12/28 00:46:37;;;;;;;12.70;8.15;;;;;;;1.64;81.50;100291.16;351880;28;1045;-71
2022/12/28 00:46:49;;;;;;;12.60;8.07;;;;;;;1.65;81.53;100294.56;351870;28;1076;-70
2022/12/28 00:47:01;;;;;;;12.48;8.65;;;;;;;1.65;81.41;100294.56;350903;28;2089;-71
2022/12/28 00:47:13;;;;;;;13.23;9.10;;;;;;;1.63;81.02;100298.81;350505;28;1038;-70
2022/12/28 00:47:25;;;;;;;13.60;9.30;;;;;;;1.60;81.19;100295.38;351135;28;2026;-71
2022/12/28 00:47:37;;;;;;;13.25;9.10;;;;;;;1.61;80.66;100293.69;350450;28;1077;-71
2022/12/28 00:47:49;;;;;;;14.88;9.18;;;;;;;1.62;80.88;100292.00;350330;28;1073;-70
2022/12/28 00:48:01;;;;;;;15.77;9.35;;;;;;;1.63;80.90;100292.03;350325;28;1231;-71
2022/12/28 00:48:14;;;;;;;16.20;9.40;;;;;;;1.62;80.47;100297.13;350060;28;1108;-70
2022/12/28 00:48:26;;;;;;;14.93;9.10;;;;;;;1.62;80.37;100292.84;350176;28;1174;-70
2022/12/28 00:48:38;;;;;;;13.93;8.82;;;;;;;1.64;80.38;100295.44;348470;28;1786;-73
2022/12/28 00:48:50;;;;;;;12.38;8.50;;;;;;;1.62;80.47;100297.13;350132;28;1657;-70
2022/12/28 00:49:02;;;;;;;12.00;8.38;;;;;;;1.63;80.38;100296.25;348932;28;1682;-71
2022/12/28 00:49:14;;;;;;;12.27;8.35;;;;;;;1.63;80.58;100293.69;350428;28;1097;-71
2022/12/28 00:49:25;;;;;;;12.95;8.50;;;;;;;1.63;80.56;100292.03;350434;28;1093;-71
2022/12/28 00:49:37;;;;;;;14.05;8.65;;;;;;;1.66;80.92;100293.75;350667;28;1253;-71
2022/12/28 00:49:50;;;;;;;13.90;8.48;;;;;;;1.69;81.18;100288.66;352277;28;1640;-71
2022/12/28 00:50:02;;;;;;;13.25;8.20;;;;;;;1.71;81.02;100290.41;351878;28;1351;-71
2022/12/28 00:50:14;;;;;;;12.27;8.15;;;;;;;1.75;81.32;100293.84;351588;28;1313;-71
2022/12/28 00:50:26;;;;;;;12.57;8.20;;;;;;;1.75;80.91;100289.63;350735;28;1531;-71
2022/12/28 00:50:38;;;;;;;14.57;8.45;;;;;;;1.76;80.70;100285.34;349617;28;2253;-71
2022/12/28 00:50:49;;;;;;;13.90;8.60;;;;;;;1.75;81.33;100289.63;350304;28;1883;-71
2022/12/28 00:51:07;;;;;;;12.52;8.50;;;;;;;1.77;81.41;100281.94;350285;28;1080;-71
2022/12/28 00:51:19;;;;;;;13.00;8.75;;;;;;;1.78;81.56;100287.09;349016;28;1288;-71
2022/12/28 00:51:31;;;;;;;14.77;8.93;;;;;;;1.79;81.41;100286.25;347374;28;1719;-70
2022/12/28 00:51:43;;;;;;;15.52;8.85;;;;;;;1.79;80.98;100285.38;347338;28;1555;-71
2022/12/28 00:51:55;;;;;;;14.30;8.32;;;;;;;1.81;81.53;100288.81;347491;28;1039;-70
2022/12/28 00:52:08;;;;;;;13.10;7.95;;;;;;;1.81;81.39;100283.69;346307;28;1774;-72
2022/12/28 00:52:20;;;;;;;13.20;7.90;;;;;;;1.74;80.91;100279.34;347176;28;1625;-71
2022/12/28 00:52:31;;;;;;;14.82;8.20;;;;;;;1.66;80.52;100288.63;347157;28;2020;-71
2022/12/28 00:52:43;;;;;;;14.88;9.30;;;;;;;1.63;81.39;100283.44;348972;28;751;-71
2022/12/28 00:52:55;;;;;;;16.27;11.25;;;;;;;1.65;81.77;100276.63;349241;28;1054;-71
2022/12/28 00:53:09;;;;;;;19.33;14.30;;;;;;;1.67;81.26;100269.84;349008;28;1057;-72
2022/12/28 00:53:20;;;;;;;21.25;15.98;;;;;;;1.70;81.87;100269.88;349655;28;1331;-72
2022/12/28 00:53:32;;;;;;;20.08;15.65;;;;;;;1.70;82.09;100275.00;350294;28;1315;-71
2022/12/28 00:53:45;;;;;;;17.42;13.32;;;;;;;1.71;81.02;100276.72;350277;28;1045;-70
2022/12/28 00:53:57;;;;;;;16.48;11.85;;;;;;;1.73;81.22;100275.03;350600;28;1297;-70
2022/12/28 00:54:09;;;;;;;16.50;10.82;;;;;;;1.75;81.25;100269.13;348443;28;2135;-71
2022/12/28 00:54:21;;;;;;;14.73;9.98;;;;;;;1.76;81.67;100275.09;348568;28;1331;-72
2022/12/28 00:54:33;;;;;;;13.27;8.90;;;;;;;1.78;81.09;100269.13;350539;28;1212;-71
2022/12/28 00:54:45;;;;;;;13.55;9.00;;;;;;;1.81;81.98;100273.44;350333;28;1153;-70
2022/12/28 00:55:00;;;;;;;13.88;9.52;;;;;;;1.78;81.81;100271.69;350318;28;1189;-71
2022/12/28 00:55:11;;;;;;;15.10;10.23;;;;;;;1.79;81.98;100267.44;350380;28;913;-71
2022/12/28 00:55:23;;;;;;;16.80;10.35;;;;;;;1.78;81.77;100273.41;350295;28;1600;-70
2022/12/28 00:55:36;;;;;;;16.42;10.50;;;;;;;1.70;81.53;100267.31;350210;28;1860;-71
2022/12/28 00:55:48;;;;;;;14.73;10.23;;;;;;;1.70;80.82;100268.19;350371;28;1160;-71
2022/12/28 00:56:17;;;;;;;15.88;10.25;;;;;;;1.76;81.01;100269.97;350534;28;1528;-70
2022/12/28 00:56:29;;;;;;;13.93;8.82;;;;;;;1.78;80.95;100275.97;350140;28;1247;-71
2022/12/28 00:56:41;;;;;;;13.38;8.65;;;;;;;1.80;80.92;100266.59;351214;28;1729;-70
2022/12/28 00:56:53;;;;;;;14.15;8.98;;;;;;;1.76;81.03;100265.69;351852;28;1546;-71
2022/12/28 00:57:05;;;;;;;13.90;9.60;;;;;;;1.76;80.60;100259.72;351051;28;2144;-70
2022/12/28 00:57:17;;;;;;;13.93;9.85;;;;;;;1.76;80.43;100269.97;351580;28;1290;-70
2022/12/28 00:57:30;;;;;;;14.77;9.80;;;;;;;1.75;81.22;100266.56;351703;28;1026;-71
2022/12/28 00:57:41;;;;;;;15.00;9.82;;;;;;;1.77;80.88;100266.53;351988;28;1197;-70
2022/12/28 00:57:53;;;;;;;14.82;10.10;;;;;;;1.78;80.97;100258.88;351004;28;2116;-70
2022/12/28 00:58:06;;;;;;;16.25;10.38;;;;;;;1.77;80.94;100264.88;351560;28;1061;-70
2022/12/28 00:58:19;;;;;;;15.35;9.82;;;;;;;1.75;80.91;100263.09;350612;28;1275;-70
2022/12/28 00:58:31;;;;;;;15.50;9.55;;;;;;;1.71;80.64;100267.34;350371;28;1202;-70
2022/12/28 00:58:44;;;;;;;16.48;9.10;;;;;;;1.70;80.73;100263.06;348862;28;1042;-71
2022/12/28 00:58:58;;;;;;;16.13;8.80;;;;;;;1.71;81.16;100261.34;347893;28;986;-71
2022/12/28 00:59:13;;;;;;;15.07;8.88;;;;;;;1.54;80.51;100261.97;348361;28;1729;-71
2022/12/28 00:59:24;;;;;;;17.05;9.20;;;;;;;1.51;81.15;100269.63;348397;28;1212;-70
2022/12/28 00:59:37;;;;;;;16.27;9.25;;;;;;;1.49;81.47;100266.19;348945;28;1039;-71
2022/12/28 00:59:49;;;;;;;15.68;8.75;;;;;;;1.54;81.48;100268.81;346581;28;1844;-73
2022/12/28 01:00:01;;;;;;;13.77;8.43;;;;;;;1.58;81.65;100265.44;346395;28;1280;-71
2022/12/28 01:00:14;;;;;;;14.10;8.50;;;;;;;1.63;81.06;100262.94;346400;28;1059;-71
2022/12/28 01:00:29;;;;;;;14.77;8.77;;;;;;;1.66;81.48;100260.44;347593;28;1078;-70
2022/12/28 01:00:41;;;;;;;14.80;9.10;;;;;;;1.67;81.88;100259.59;347542;28;901;-70
2022/12/28 01:00:53;;;;;;;14.45;8.95;;;;;;;1.70;81.54;100257.94;348980;28;1023;-71
2022/12/28 01:01:11;;;;;;;14.98;8.90;;;;;;;1.75;81.53;100257.97;349638;28;1799;-71
2022/12/28 01:01:24;;;;;;;14.05;8.75;;;;;;;1.76;81.61;100250.31;350372;28;1327;-71
2022/12/28 01:01:37;;;;;;;12.88;8.65;;;;;;;1.79;81.97;100254.63;350152;28;1238;-71